Time;durP1;ratioP1;P1;durP2;ratioP2;P2;SDS_P1;SDS_P2;PMS_P1;PMS_P2;Temp;Humidity;BMP_temperature;BMP_pressure;BME280_temperature;BME280_humidity;BME280_pressure;Samples;Min_cycle;Max_cycle;Signal;HPM_P1;HPM_P2
2021/05/13 04:02:29;;;;;;;38.75;17.80;;;11.10;99.90;;;;;;5064937;23;20244;-70
2021/05/13 04:04:56;;;;;;;42.17;20.10;;;11.10;99.90;;;;;;4938650;29;20225;-73
2021/05/13 04:07:22;;;;;;;38.42;20.58;;;11.10;99.90;;;;;;4938610;29;20280;-72
2021/05/13 04:09:49;;;;;;;43.22;20.85;;;11.20;99.90;;;;;;4940649;29;20205;-72
2021/05/13 04:12:15;;;;;;;46.60;18.98;;;11.20;99.90;;;;;;4922091;29;20227;-72
2021/05/13 04:14:41;;;;;;;38.35;20.45;;;11.20;99.90;;;;;;4918452;29;20218;-72
2021/05/13 04:17:07;;;;;;;44.25;20.35;;;11.20;99.90;;;;;;4919586;29;20655;-71
2021/05/13 04:19:35;;;;;;;44.33;20.58;;;11.20;99.90;;;;;;4918914;29;20233;-72
2021/05/13 04:22:02;;;;;;;33.83;19.70;;;11.20;99.90;;;;;;4917851;29;20238;-72
2021/05/13 04:24:28;;;;;;;36.70;20.08;;;11.30;99.90;;;;;;4919151;29;20215;-72
2021/05/13 04:26:54;;;;;;;36.88;19.73;;;11.30;99.90;;;;;;4919779;29;20559;-71
2021/05/13 04:29:20;;;;;;;40.85;19.38;;;11.30;99.90;;;;;;4920270;29;20209;-71
2021/05/13 04:31:46;;;;;;;43.25;21.58;;;11.30;99.90;;;;;;4917685;29;20226;-71
2021/05/13 04:34:13;;;;;;;40.88;21.75;;;11.30;99.90;;;;;;4922768;29;20671;-72
2021/05/13 04:36:40;;;;;;;38.08;20.40;;;11.30;99.90;;;;;;4920481;29;20218;-71
2021/05/13 04:39:06;;;;;;;40.58;21.73;;;11.40;99.90;;;;;;4921064;29;20229;-71
2021/05/13 04:41:33;;;;;;;38.47;20.25;;;11.40;99.90;;;;;;4919920;29;20355;-71
2021/05/13 04:44:01;;;;;;;38.08;20.80;;;11.40;99.90;;;;;;4901863;29;20215;-71
2021/05/13 04:46:29;;;;;;;39.55;21.25;;;11.40;99.90;;;;;;4919256;29;20218;-71
2021/05/13 04:49:14;;;;;;;41.88;21.55;;;11.40;99.90;;;;;;4922900;29;20221;-71
2021/05/13 04:51:41;;;;;;;43.03;21.27;;;11.40;99.90;;;;;;4921107;29;20285;-70
2021/05/13 04:54:07;;;;;;;43.30;20.35;;;11.50;99.90;;;;;;4920489;29;20230;-70
2021/05/13 04:56:35;;;;;;;37.80;21.90;;;11.50;99.90;;;;;;4919454;29;20206;-70
2021/05/13 04:59:01;;;;;;;40.45;21.08;;;11.50;99.90;;;;;;4919755;29;20211;-71
2021/05/13 05:01:27;;;;;;;40.05;20.33;;;11.50;99.90;;;;;;4919486;29;20327;-71
2021/05/13 05:03:54;;;;;;;44.67;21.30;;;11.50;99.90;;;;;;4919365;29;20302;-71
2021/05/13 05:06:20;;;;;;;40.92;20.75;;;11.50;99.90;;;;;;4920523;29;20683;-71
2021/05/13 05:08:47;;;;;;;35.90;20.38;;;11.50;99.90;;;;;;4921247;29;20249;-70
2021/05/13 05:11:16;;;;;;;41.00;22.15;;;11.50;99.90;;;;;;4920270;29;20248;-71
2021/05/13 05:13:42;;;;;;;37.45;20.00;;;11.60;99.90;;;;;;4921409;29;20266;-70
2021/05/13 05:16:08;;;;;;;33.38;19.50;;;11.60;99.90;;;;;;4922957;29;20258;-71
2021/05/13 05:18:34;;;;;;;36.30;21.20;;;11.50;99.90;;;;;;4924123;29;20207;-70
2021/05/13 05:21:00;;;;;;;39.58;21.50;;;11.60;99.90;;;;;;4924169;29;20243;-71
2021/05/13 05:23:27;;;;;;;43.38;21.10;;;11.50;99.90;;;;;;4925346;29;20218;-70
2021/05/13 05:25:56;;;;;;;37.15;19.77;;;11.60;99.90;;;;;;4925496;29;20211;-71
2021/05/13 05:28:22;;;;;;;41.55;21.30;;;11.60;99.90;;;;;;4922974;29;20203;-70
2021/05/13 05:30:48;;;;;;;31.98;20.77;;;11.60;99.90;;;;;;4919571;29;20226;-71
2021/05/13 05:33:14;;;;;;;37.03;20.48;;;11.60;99.90;;;;;;4918782;29;20210;-71
2021/05/13 05:35:41;;;;;;;40.33;22.05;;;11.60;99.90;;;;;;4918360;29;20222;-70
2021/05/13 05:38:08;;;;;;;37.20;21.25;;;11.70;99.90;;;;;;4918225;29;20218;-72
2021/05/13 05:40:34;;;;;;;41.17;23.23;;;11.80;99.90;;;;;;4918015;29;20261;-70
2021/05/13 05:43:02;;;;;;;33.80;19.83;;;11.80;99.90;;;;;;4918169;29;20534;-70
2021/05/13 05:45:28;;;;;;;31.05;20.30;;;11.80;99.90;;;;;;4918045;29;20575;-70
2021/05/13 05:47:59;;;;;;;37.05;20.13;;;11.80;99.90;;;;;;4917670;29;20203;-70
2021/05/13 05:50:27;;;;;;;32.40;20.30;;;11.90;99.90;;;;;;4917363;29;20213;-70
2021/05/13 05:52:54;;;;;;;35.00;20.70;;;11.80;99.90;;;;;;4917340;29;20207;-70
2021/05/13 05:55:20;;;;;;;41.75;20.70;;;11.80;99.90;;;;;;4918152;29;20222;-70
2021/05/13 05:57:46;;;;;;;34.97;19.70;;;11.70;99.90;;;;;;4918100;29;20258;-71
2021/05/13 06:00:15;;;;;;;34.05;20.10;;;11.70;99.90;;;;;;4917274;29;20253;-70
2021/05/13 06:02:41;;;;;;;33.25;19.05;;;11.70;99.90;;;;;;4917179;29;20223;-70
2021/05/13 06:05:08;;;;;;;35.47;20.42;;;11.70;99.90;;;;;;4917937;29;20213;-70
2021/05/13 06:07:35;;;;;;;38.20;20.92;;;11.70;99.90;;;;;;4916982;29;20214;-71
2021/05/13 06:10:02;;;;;;;36.50;20.15;;;11.80;99.90;;;;;;4917872;29;20202;-71
2021/05/13 06:12:28;;;;;;;38.75;20.33;;;11.80;99.90;;;;;;4917183;29;20734;-71
2021/05/13 06:14:55;;;;;;;38.35;22.10;;;11.80;99.90;;;;;;4918028;29;20211;-71
2021/05/13 06:17:22;;;;;;;42.35;21.08;;;11.70;99.90;;;;;;4917214;29;20209;-72
2021/05/13 06:19:48;;;;;;;35.53;22.17;;;11.70;99.90;;;;;;4916998;29;20274;-72
2021/05/13 06:22:15;;;;;;;40.58;22.42;;;11.70;99.90;;;;;;4916865;29;20226;-73
2021/05/13 06:24:41;;;;;;;38.88;20.42;;;11.70;99.90;;;;;;4918234;29;20211;-72
2021/05/13 06:27:07;;;;;;;37.45;21.13;;;11.80;99.90;;;;;;4918035;29;20281;-72
2021/05/13 06:29:34;;;;;;;40.00;20.92;;;11.80;99.90;;;;;;4917587;29;20207;-71
2021/05/13 06:32:00;;;;;;;34.72;20.10;;;11.90;99.90;;;;;;4916996;29;20234;-71
2021/05/13 06:34:28;;;;;;;37.85;20.42;;;11.80;99.90;;;;;;4916268;29;20220;-73
2021/05/13 06:36:55;;;;;;;34.92;21.13;;;11.90;99.90;;;;;;4917119;29;20575;-71
2021/05/13 06:39:21;;;;;;;38.13;21.50;;;11.90;99.90;;;;;;4916847;29;20214;-73
2021/05/13 06:41:48;;;;;;;38.60;23.08;;;11.90;99.90;;;;;;4917194;29;20222;-72
2021/05/13 06:44:14;;;;;;;36.67;21.40;;;11.90;99.90;;;;;;4917166;29;20215;-72
2021/05/13 06:46:40;;;;;;;38.42;21.48;;;11.90;99.90;;;;;;4916762;29;20213;-72
2021/05/13 06:49:06;;;;;;;38.55;24.23;;;11.90;99.90;;;;;;4916911;29;20222;-71
2021/05/13 06:51:33;;;;;;;38.42;22.05;;;11.90;99.90;;;;;;4916141;29;20527;-73
2021/05/13 06:54:00;;;;;;;40.47;24.42;;;11.90;99.90;;;;;;4916287;29;20207;-71
2021/05/13 06:56:26;;;;;;;46.55;24.02;;;12.00;99.90;;;;;;4916635;29;20689;-71
2021/05/13 06:58:52;;;;;;;39.60;23.30;;;12.00;99.90;;;;;;4916875;29;20222;-72
2021/05/13 07:01:18;;;;;;;40.72;24.17;;;12.00;99.90;;;;;;4916431;29;20235;-72
2021/05/13 07:03:44;;;;;;;39.80;23.15;;;12.00;99.90;;;;;;4916535;29;20210;-70
2021/05/13 07:06:10;;;;;;;39.97;24.20;;;12.00;99.90;;;;;;4916365;29;20302;-72
2021/05/13 07:08:38;;;;;;;40.38;23.58;;;12.00;99.90;;;;;;4915972;29;20546;-72
2021/05/13 07:11:04;;;;;;;42.25;22.52;;;12.10;99.90;;;;;;4916693;29;20234;-71
2021/05/13 07:13:31;;;;;;;36.13;22.90;;;12.10;99.90;;;;;;4916614;29;20207;-71
2021/05/13 07:15:57;;;;;;;41.60;23.10;;;12.10;99.90;;;;;;4915824;29;20207;-71
2021/05/13 07:18:23;;;;;;;39.95;22.90;;;12.10;99.90;;;;;;4914799;29;20234;-71
2021/05/13 07:20:49;;;;;;;41.53;25.58;;;12.00;99.90;;;;;;4915531;29;20230;-72
2021/05/13 07:23:15;;;;;;;45.17;25.10;;;12.10;99.90;;;;;;4915902;29;20222;-71
2021/05/13 07:25:43;;;;;;;33.72;23.42;;;12.10;99.90;;;;;;4915753;29;20210;-72
2021/05/13 07:28:09;;;;;;;48.50;25.65;;;12.00;99.90;;;;;;4916172;29;20211;-72
2021/05/13 07:30:36;;;;;;;45.15;25.30;;;12.00;99.90;;;;;;4915579;29;20223;-73
2021/05/13 07:33:02;;;;;;;42.40;25.50;;;12.00;99.90;;;;;;4916016;29;20551;-69
2021/05/13 07:35:28;;;;;;;40.20;26.23;;;12.10;99.90;;;;;;4915533;29;20233;-71
2021/05/13 07:37:55;;;;;;;43.72;26.30;;;12.10;99.90;;;;;;4915783;29;20274;-70
2021/05/13 07:40:23;;;;;;;41.47;25.58;;;12.10;99.90;;;;;;4915573;29;20620;-71
2021/05/13 07:42:50;;;;;;;43.35;25.38;;;12.00;99.90;;;;;;4915653;29;20725;-71
2021/05/13 07:45:17;;;;;;;44.78;25.10;;;12.00;99.90;;;;;;4915396;29;20706;-70
2021/05/13 07:47:44;;;;;;;40.90;25.70;;;12.00;99.90;;;;;;4915848;29;20405;-71
2021/05/13 07:50:12;;;;;;;40.50;25.92;;;12.00;99.90;;;;;;4915074;29;20206;-71
2021/05/13 07:52:39;;;;;;;43.40;26.17;;;12.00;99.90;;;;;;4915109;29;20612;-72
2021/05/13 07:55:07;;;;;;;41.45;25.50;;;12.00;99.90;;;;;;4915546;29;20210;-71
2021/05/13 07:57:33;;;;;;;40.50;25.05;;;12.00;99.90;;;;;;4915418;29;20234;-70
2021/05/13 08:00:00;;;;;;;42.50;26.35;;;12.00;99.90;;;;;;4915484;29;20226;-72
2021/05/13 08:02:27;;;;;;;44.30;27.45;;;12.00;99.90;;;;;;4915429;29;20230;-72
2021/05/13 08:04:53;;;;;;;39.05;25.52;;;12.00;99.90;;;;;;4915752;29;20213;-72
2021/05/13 08:07:21;;;;;;;42.67;25.85;;;12.10;99.90;;;;;;4915946;29;20206;-72
2021/05/13 08:09:48;;;;;;;43.22;27.60;;;12.10;99.90;;;;;;4919553;29;20226;-72
2021/05/13 08:12:14;;;;;;;45.58;27.92;;;12.20;99.90;;;;;;4918971;29;20233;-72
2021/05/13 08:14:40;;;;;;;40.28;26.23;;;12.10;99.90;;;;;;4919849;29;20214;-71
2021/05/13 08:17:08;;;;;;;39.67;24.85;;;12.10;99.90;;;;;;4919581;29;20683;-72
2021/05/13 08:19:34;;;;;;;40.08;26.10;;;12.20;99.90;;;;;;4919131;29;20231;-72
2021/05/13 08:22:00;;;;;;;35.42;24.50;;;12.10;99.90;;;;;;4918851;29;20227;-71
2021/05/13 08:24:27;;;;;;;35.13;23.45;;;12.10;99.90;;;;;;4919896;29;20210;-71
2021/05/13 08:26:54;;;;;;;35.47;23.48;;;12.10;99.90;;;;;;4922422;29;20203;-72
2021/05/13 08:29:20;;;;;;;37.97;25.42;;;12.10;99.90;;;;;;4920958;29;20544;-71
2021/05/13 08:31:47;;;;;;;35.80;24.13;;;12.00;99.90;;;;;;4919839;29;20327;-71
2021/05/13 08:34:14;;;;;;;35.58;24.40;;;12.10;99.90;;;;;;4914877;29;20570;-72
2021/05/13 08:36:40;;;;;;;40.20;25.70;;;12.20;99.90;;;;;;4918281;29;20698;-72
2021/05/13 08:39:07;;;;;;;39.65;25.52;;;12.30;99.90;;;;;;4915136;29;20287;-73
2021/05/13 08:41:37;;;;;;;34.90;23.83;;;12.30;99.90;;;;;;4909806;29;20234;-72
2021/05/13 08:44:07;;;;;;;37.97;24.88;;;12.40;99.90;;;;;;4920643;29;20298;-72
2021/05/13 08:46:35;;;;;;;34.42;24.40;;;12.50;99.90;;;;;;4918890;29;20202;-72
2021/05/13 08:49:02;;;;;;;34.38;24.17;;;12.50;99.90;;;;;;4919472;29;20559;-71
2021/05/13 08:51:30;;;;;;;33.55;21.80;;;12.50;99.90;;;;;;4918485;29;20226;-72
2021/05/13 08:53:58;;;;;;;33.72;22.77;;;12.50;99.90;;;;;;4920398;29;20237;-72
2021/05/13 08:56:25;;;;;;;32.58;22.10;;;12.50;99.90;;;;;;4923058;29;20217;-72
2021/05/13 08:58:52;;;;;;;33.85;22.27;;;12.50;99.90;;;;;;4920091;29;20643;-71
2021/05/13 09:01:21;;;;;;;32.97;22.33;;;12.50;99.90;;;;;;4919131;29;20245;-70
2021/05/13 09:03:48;;;;;;;31.77;22.13;;;12.50;99.90;;;;;;4919222;29;20659;-71
2021/05/13 09:06:23;;;;;;;33.17;22.80;;;12.50;99.90;;;;;;4919067;29;20580;-72
2021/05/13 09:08:50;;;;;;;35.30;22.50;;;12.50;99.90;;;;;;4918492;29;20667;-72
2021/05/13 09:11:18;;;;;;;35.45;22.40;;;12.50;99.90;;;;;;4919468;29;20230;-72
2021/05/13 09:13:48;;;;;;;30.05;20.90;;;12.50;99.90;;;;;;4919005;29;20210;-71
2021/05/13 09:16:29;;;;;;;31.77;22.00;;;12.50;99.90;;;;;;4919589;29;20207;-73
2021/05/13 09:18:55;;;;;;;33.90;21.00;;;12.50;99.90;;;;;;4918261;29;20293;-72
2021/05/13 09:21:21;;;;;;;29.13;19.33;;;12.60;99.90;;;;;;4918228;29;20234;-74
2021/05/13 09:23:48;;;;;;;26.45;18.35;;;12.60;99.90;;;;;;4917711;29;20305;-72
2021/05/13 09:26:17;;;;;;;23.65;17.10;;;12.60;99.90;;;;;;4914861;29;20215;-73
2021/05/13 09:28:46;;;;;;;23.40;17.40;;;12.60;99.90;;;;;;4903716;29;20725;-72
2021/05/13 09:31:36;;;;;;;24.42;17.95;;;12.60;99.90;;;;;;4910199;29;20234;-72
2021/05/13 09:34:04;;;;;;;30.95;19.52;;;12.60;99.90;;;;;;4916125;29;20213;-72
2021/05/13 09:36:31;;;;;;;26.90;19.30;;;12.60;99.90;;;;;;4917183;29;20214;-74
2021/05/13 09:38:57;;;;;;;25.52;18.85;;;12.60;99.90;;;;;;4917472;29;20249;-71
2021/05/13 09:41:28;;;;;;;29.50;19.63;;;12.60;99.90;;;;;;4917904;29;20298;-72
2021/05/13 09:43:55;;;;;;;27.63;18.73;;;12.60;99.90;;;;;;4917325;29;20211;-72
2021/05/13 09:46:32;;;;;;;30.05;20.73;;;12.60;99.90;;;;;;4917671;29;20225;-72
2021/05/13 09:48:59;;;;;;;27.95;19.25;;;12.60;99.90;;;;;;4903943;29;20282;-72
2021/05/13 09:51:26;;;;;;;24.77;18.63;;;12.60;99.90;;;;;;4917544;29;20349;-72
2021/05/13 09:54:06;;;;;;;34.65;19.95;;;12.60;99.90;;;;;;4916891;29;20222;-71
2021/05/13 09:56:33;;;;;;;31.75;18.70;;;12.60;99.90;;;;;;4917832;29;20194;-72
2021/05/13 09:59:20;;;;;;;24.05;17.35;;;12.60;99.90;;;;;;4918190;29;20214;-72
2021/05/13 10:01:46;;;;;;;24.30;19.75;;;12.60;99.90;;;;;;4917778;29;20313;-72
2021/05/13 10:04:13;;;;;;;24.85;18.25;;;12.70;99.90;;;;;;4914649;29;20607;-72
2021/05/13 10:06:39;;;;;;;29.73;19.73;;;12.80;99.90;;;;;;4916280;29;20537;-71
2021/05/13 10:09:06;;;;;;;25.75;18.15;;;12.80;99.90;;;;;;4917772;29;20574;-72
2021/05/13 10:11:33;;;;;;;23.98;19.00;;;12.80;99.90;;;;;;4917659;29;20227;-71
2021/05/13 10:14:00;;;;;;;21.63;17.50;;;12.90;99.90;;;;;;4917391;29;20211;-72
2021/05/13 10:16:28;;;;;;;18.40;15.48;;;12.90;99.90;;;;;;4917613;29;20242;-71
2021/05/13 10:18:59;;;;;;;21.88;17.20;;;13.00;99.90;;;;;;4918008;29;20218;-73
2021/05/13 10:21:28;;;;;;;19.85;15.98;;;13.00;99.90;;;;;;4917637;29;20242;-72
2021/05/13 10:23:56;;;;;;;23.00;16.20;;;13.00;99.90;;;;;;4901821;29;20227;-71
2021/05/13 10:26:42;;;;;;;24.38;18.35;;;13.00;99.90;;;;;;4916853;29;20245;-73
2021/05/13 10:29:34;;;;;;;25.33;18.05;;;13.00;99.90;;;;;;4916832;29;20218;-72
2021/05/13 10:32:09;;;;;;;19.77;14.98;;;13.10;99.90;;;;;;4914886;29;20222;-72
2021/05/13 10:34:54;;;;;;;19.15;15.45;;;13.20;99.90;;;;;;4916390;29;20277;-72
2021/05/13 10:37:30;;;;;;;17.40;15.02;;;13.30;99.90;;;;;;4913335;29;20226;-72
2021/05/13 10:40:23;;;;;;;20.08;15.15;;;13.30;99.90;;;;;;4915320;29;20318;-72
2021/05/13 10:43:02;;;;;;;19.33;15.05;;;13.40;99.90;;;;;;4916211;29;20339;-71
2021/05/13 10:45:40;;;;;;;20.33;16.40;;;13.40;99.90;;;;;;4911309;29;20237;-72
2021/05/13 10:48:26;;;;;;;19.20;16.08;;;13.40;99.90;;;;;;4912268;29;20561;-72
2021/05/13 10:50:55;;;;;;;19.58;16.48;;;13.40;99.90;;;;;;4913057;29;20305;-71
2021/05/13 10:53:42;;;;;;;21.27;17.10;;;13.30;99.90;;;;;;4916075;29;20201;-72
2021/05/13 10:56:34;;;;;;;23.50;15.73;;;13.40;99.90;;;;;;4912056;29;20238;-72
2021/05/13 10:59:12;;;;;;;20.37;17.47;;;13.50;99.90;;;;;;4909833;29;20214;-71
2021/05/13 11:01:42;;;;;;;23.25;17.45;;;13.60;99.90;;;;;;4915778;29;20504;-71
2021/05/13 11:04:41;;;;;;;23.93;17.43;;;13.60;99.90;;;;;;4915786;29;20282;-71
2021/05/13 11:07:26;;;;;;;18.20;16.27;;;13.80;99.90;;;;;;4903933;29;20554;-72
2021/05/13 11:09:54;;;;;;;17.67;15.70;;;13.90;99.90;;;;;;4911841;29;20553;-71
2021/05/13 11:12:22;;;;;;;17.77;15.40;;;14.00;99.90;;;;;;4915471;29;20498;-72
2021/05/13 11:15:08;;;;;;;19.20;15.63;;;14.00;99.90;;;;;;4915593;29;20467;-72
2021/05/13 11:18:14;;;;;;;18.97;15.00;;;14.10;99.90;;;;;;4916178;29;20470;-72
2021/05/13 11:20:55;;;;;;;21.80;14.40;;;14.20;99.90;;;;;;4915489;29;20517;-72
2021/05/13 11:23:24;;;;;;;15.93;14.00;;;14.20;99.90;;;;;;4915647;29;20589;-72
2021/05/13 11:25:53;;;;;;;16.53;14.17;;;14.20;99.90;;;;;;4916613;29;20467;-72
2021/05/13 11:28:21;;;;;;;14.83;13.20;;;14.30;99.90;;;;;;4916144;29;20474;-71
2021/05/13 11:30:50;;;;;;;16.13;13.03;;;14.30;99.90;;;;;;4915648;29;20494;-73
2021/05/13 11:33:17;;;;;;;15.40;13.33;;;14.20;99.90;;;;;;4915633;29;20473;-72
2021/05/13 11:35:44;;;;;;;17.80;14.70;;;14.10;99.90;;;;;;4915959;29;20474;-73
2021/05/13 11:38:21;;;;;;;22.23;16.50;;;14.10;99.90;;;;;;4916159;29;20529;-73
2021/05/13 11:40:50;;;;;;;16.20;14.50;;;14.00;99.90;;;;;;4915783;29;20505;-73
2021/05/13 11:43:18;;;;;;;16.70;14.50;;;14.00;99.90;;;;;;4910204;29;20550;-72
2021/05/13 11:45:45;;;;;;;18.37;14.73;;;14.00;99.90;;;;;;4915682;29;20207;-73
2021/05/13 11:48:28;;;;;;;15.53;13.93;;;14.00;99.90;;;;;;4915555;29;20982;-73
2021/05/13 11:50:56;;;;;;;18.55;13.40;;;13.90;99.90;;;;;;4913002;29;20478;-72
2021/05/13 11:53:24;;;;;;;15.77;14.13;;;13.90;99.90;;;;;;4905744;29;20210;-72
2021/05/13 11:55:51;;;;;;;16.40;14.67;;;14.00;99.90;;;;;;4909873;29;20520;-73
2021/05/13 11:58:43;;;;;;;15.98;14.25;;;14.00;99.90;;;;;;4915189;29;20802;-72
2021/05/13 12:01:26;;;;;;;16.00;13.57;;;14.10;99.90;;;;;;4909388;29;20262;-72
2021/05/13 12:04:02;;;;;;;17.15;12.95;;;14.20;99.90;;;;;;4915091;29;20466;-73
2021/05/13 12:06:41;;;;;;;15.40;13.80;;;14.20;99.90;;;;;;4914708;29;20210;-73
2021/05/13 12:09:07;;;;;;;16.37;14.87;;;14.30;99.90;;;;;;4914084;29;20470;-72
2021/05/13 12:11:33;;;;;;;16.23;14.20;;;14.20;99.90;;;;;;4914933;29;20600;-72
2021/05/13 12:14:00;;;;;;;15.93;13.33;;;14.20;99.90;;;;;;4913862;29;20473;-72
2021/05/13 12:16:28;;;;;;;13.47;12.10;;;14.30;99.90;;;;;;4914626;29;20477;-72
2021/05/13 12:18:56;;;;;;;13.17;11.87;;;14.40;99.90;;;;;;4915200;29;20554;-72
2021/05/13 12:21:24;;;;;;;13.80;12.07;;;14.50;99.90;;;;;;4914261;29;20498;-71
2021/05/13 12:23:51;;;;;;;12.20;11.10;;;14.50;99.90;;;;;;4914130;29;20467;-73
2021/05/13 12:26:22;;;;;;;14.73;12.90;;;14.40;99.90;;;;;;4914999;29;20470;-73
2021/05/13 12:28:49;;;;;;;12.87;11.20;;;14.50;99.90;;;;;;4914025;29;20463;-73
2021/05/13 12:31:31;;;;;;;12.57;11.27;;;14.50;99.90;;;;;;4914839;29;20489;-71
2021/05/13 12:33:58;;;;;;;13.77;11.77;;;14.70;99.90;;;;;;4914006;29;20896;-72
2021/05/13 12:36:25;;;;;;;16.00;12.00;;;14.70;99.90;;;;;;4914685;29;20466;-73
2021/05/13 12:38:51;;;;;;;12.63;11.33;;;14.80;99.90;;;;;;4914836;29;20811;-72
2021/05/13 12:41:21;;;;;;;18.33;13.63;;;14.80;99.90;;;;;;4915818;29;20494;-72
2021/05/13 12:43:48;;;;;;;13.63;12.23;;;14.80;99.90;;;;;;4915890;29;20553;-71
2021/05/13 12:46:23;;;;;;;12.37;11.13;;;14.90;99.90;;;;;;4927669;29;20473;-71
2021/05/13 12:48:50;;;;;;;12.07;10.97;;;15.10;99.90;;;;;;4917217;29;20462;-72
2021/05/13 12:51:19;;;;;;;11.57;10.57;;;15.10;99.90;;;;;;4915113;29;20498;-72
2021/05/13 12:53:48;;;;;;;14.00;11.20;;;15.10;99.90;;;;;;4916120;29;20474;-73
2021/05/13 12:56:26;;;;;;;11.50;10.50;;;15.20;99.90;;;;;;4918890;29;21212;-73
2021/05/13 12:59:10;;;;;;;11.67;10.53;;;15.30;99.90;;;;;;4919589;29;20466;-73
2021/05/13 13:01:37;;;;;;;10.83;9.57;;;15.30;99.90;;;;;;4899314;29;20566;-73
2021/05/13 13:04:06;;;;;;;10.37;9.47;;;15.30;99.90;;;;;;4899093;29;20486;-73
2021/05/13 13:06:33;;;;;;;10.70;9.70;;;15.20;99.90;;;;;;4898963;29;20562;-74
2021/05/13 13:09:00;;;;;;;10.13;9.27;;;15.10;99.90;;;;;;4906877;29;20521;-72
2021/05/13 13:11:32;;;;;;;11.00;10.00;;;15.10;99.90;;;;;;4918720;29;20486;-71
2021/05/13 13:14:01;;;;;;;11.50;10.50;;;15.20;99.90;;;;;;4918374;29;20466;-72
2021/05/13 13:16:27;;;;;;;10.13;9.23;;;15.20;99.90;;;;;;4918597;29;20466;-73
2021/05/13 13:19:01;;;;;;;10.33;8.60;;;15.20;99.90;;;;;;4918567;29;20477;-72
2021/05/13 13:21:28;;;;;;;9.40;8.60;;;15.30;99.90;;;;;;4918024;29;20493;-72
2021/05/13 13:23:54;;;;;;;9.23;8.53;;;15.30;99.90;;;;;;4916977;29;20462;-72
2021/05/13 13:26:23;;;;;;;8.77;8.27;;;15.40;99.90;;;;;;4918517;29;20470;-73
2021/05/13 13:28:50;;;;;;;9.63;9.03;;;15.40;99.90;;;;;;4918426;29;20478;-73
2021/05/13 13:31:18;;;;;;;9.97;9.03;;;15.30;99.90;;;;;;4917999;29;20979;-73
2021/05/13 13:33:45;;;;;;;8.97;8.17;;;15.30;99.90;;;;;;4917686;29;20470;-73
2021/05/13 13:36:12;;;;;;;7.83;7.20;;;15.20;99.90;;;;;;4917535;29;20546;-74
2021/05/13 13:38:39;;;;;;;8.57;7.80;;;15.30;99.90;;;;;;4917836;29;20959;-73
2021/05/13 13:41:05;;;;;;;8.60;7.90;;;15.40;99.90;;;;;;4918421;29;20583;-73
2021/05/13 13:43:33;;;;;;;8.10;6.80;;;15.50;99.90;;;;;;4917742;29;20466;-74
2021/05/13 13:46:00;;;;;;;7.37;6.97;;;15.50;99.90;;;;;;4918759;29;20529;-73
2021/05/13 13:48:26;;;;;;;7.40;6.73;;;15.40;99.90;;;;;;4918458;29;20473;-73
2021/05/13 13:50:54;;;;;;;7.80;7.20;;;15.30;99.90;;;;;;4918024;29;20486;-73
2021/05/13 13:53:22;;;;;;;9.33;8.43;;;15.20;99.90;;;;;;4916601;29;20490;-73
2021/05/13 13:55:49;;;;;;;9.63;8.73;;;15.10;99.90;;;;;;4916793;29;20483;-73
2021/05/13 13:58:15;;;;;;;8.57;7.90;;;15.00;99.90;;;;;;4917154;29;20876;-73
2021/05/13 14:00:42;;;;;;;7.80;7.30;;;15.00;99.90;;;;;;4917085;29;20498;-72
2021/05/13 14:03:09;;;;;;;8.50;7.80;;;14.90;99.90;;;;;;4917266;29;20469;-73
2021/05/13 14:05:35;;;;;;;8.17;7.67;;;14.90;99.90;;;;;;4917310;29;20469;-73
2021/05/13 14:08:01;;;;;;;7.97;7.37;;;14.90;99.90;;;;;;4914007;29;20474;-73
2021/05/13 14:10:29;;;;;;;7.83;7.33;;;14.80;99.90;;;;;;4909850;29;20530;-73
2021/05/13 14:12:57;;;;;;;8.67;7.90;;;14.90;99.90;;;;;;4911686;29;20517;-73
2021/05/13 14:15:23;;;;;;;7.87;7.27;;;14.80;99.90;;;;;;4916844;29;20466;-74
2021/05/13 14:17:50;;;;;;;18.83;8.13;;;14.90;99.90;;;;;;4917066;29;20481;-72
2021/05/13 14:20:19;;;;;;;8.70;8.10;;;14.90;99.90;;;;;;4916334;29;20497;-72
2021/05/13 14:22:46;;;;;;;6.83;6.33;;;14.90;99.90;;;;;;4916474;29;20553;-73
2021/05/13 14:25:13;;;;;;;7.10;6.40;;;15.00;99.90;;;;;;4916909;29;20466;-73
2021/05/13 14:27:41;;;;;;;7.00;6.50;;;15.00;99.90;;;;;;4914972;29;20514;-72
2021/05/13 14:30:09;;;;;;;7.47;6.97;;;14.90;99.90;;;;;;4914583;29;20514;-73
2021/05/13 14:32:36;;;;;;;7.87;7.17;;;14.90;99.90;;;;;;4916673;29;20476;-73
2021/05/13 14:35:04;;;;;;;6.10;5.60;;;14.80;99.90;;;;;;4916588;29;20474;-73
2021/05/13 14:37:31;;;;;;;6.40;5.90;;;14.70;99.90;;;;;;4916619;29;20470;-73
2021/05/13 14:39:57;;;;;;;5.13;4.87;;;14.70;99.90;;;;;;4916199;29;20927;-73
2021/05/13 14:42:24;;;;;;;5.30;5.00;;;14.70;99.90;;;;;;4916259;29;20510;-73
2021/05/13 14:44:50;;;;;;;5.67;5.27;;;14.70;99.90;;;;;;4916088;29;20463;-74
2021/05/13 14:47:16;;;;;;;6.00;5.60;;;14.70;99.90;;;;;;4914136;29;20463;-74
2021/05/13 14:49:42;;;;;;;5.80;5.50;;;14.70;99.90;;;;;;4913146;29;20919;-73
2021/05/13 14:52:10;;;;;;;6.03;5.70;;;14.70;99.90;;;;;;4914489;29;20541;-73
2021/05/13 14:54:36;;;;;;;6.37;5.80;;;14.80;99.90;;;;;;4914540;29;20470;-73
2021/05/13 14:57:08;;;;;;;6.50;6.00;;;14.80;99.90;;;;;;4915296;29;20473;-73
2021/05/13 14:59:35;;;;;;;6.23;5.93;;;14.80;99.90;;;;;;4916055;29;20462;-72
2021/05/13 15:02:06;;;;;;;7.03;6.60;;;14.90;99.90;;;;;;4916026;29;20610;-72
2021/05/13 15:04:33;;;;;;;7.30;6.80;;;14.90;99.90;;;;;;4915433;29;20506;-72
2021/05/13 15:06:59;;;;;;;6.40;6.00;;;14.90;99.90;;;;;;4908578;29;20553;-72
2021/05/13 15:09:26;;;;;;;6.13;5.57;;;15.00;99.90;;;;;;4916103;29;20550;-72
2021/05/13 15:11:52;;;;;;;6.10;5.60;;;14.90;99.90;;;;;;4915898;29;20489;-72
2021/05/13 15:14:18;;;;;;;5.87;5.57;;;14.90;99.90;;;;;;4915681;29;20470;-73
2021/05/13 15:16:44;;;;;;;5.63;5.43;;;14.80;99.90;;;;;;4915352;29;20473;-73
2021/05/13 15:19:11;;;;;;;7.03;6.53;;;14.80;99.90;;;;;;4916096;29;20470;-73
2021/05/13 15:21:37;;;;;;;6.87;6.53;;;14.80;99.90;;;;;;4916025;29;20541;-73
2021/05/13 15:24:04;;;;;;;6.87;6.40;;;14.70;99.90;;;;;;4915635;29;20462;-72
2021/05/13 15:26:32;;;;;;;7.17;6.73;;;14.70;99.90;;;;;;4916330;29;20493;-73
2021/05/13 15:28:58;;;;;;;7.50;7.00;;;14.70;99.90;;;;;;4916133;29;20462;-73
2021/05/13 15:31:24;;;;;;;6.73;6.27;;;14.60;99.90;;;;;;4916337;29;20494;-73
2021/05/13 15:33:50;;;;;;;7.70;7.10;;;14.60;99.90;;;;;;4916208;29;20493;-73
2021/05/13 15:36:16;;;;;;;7.73;7.33;;;14.70;99.90;;;;;;4916032;29;20466;-74
2021/05/13 15:38:44;;;;;;;8.07;7.57;;;14.70;99.90;;;;;;4916046;29;20466;-73
2021/05/13 15:41:12;;;;;;;7.70;7.30;;;14.60;99.90;;;;;;4916466;29;20498;-72
2021/05/13 15:43:39;;;;;;;8.70;8.10;;;14.50;99.90;;;;;;4915269;29;20498;-72
2021/05/13 15:46:06;;;;;;;8.43;7.87;;;14.50;99.90;;;;;;4916412;29;20982;-72
2021/05/13 15:48:32;;;;;;;8.30;7.70;;;14.50;99.90;;;;;;4915029;29;20463;-72
2021/05/13 15:50:58;;;;;;;8.30;7.70;;;14.50;99.90;;;;;;4914431;29;20908;-72
2021/05/13 15:53:25;;;;;;;8.73;8.03;;;14.50;99.90;;;;;;4914679;29;20526;-72
2021/05/13 15:55:51;;;;;;;10.27;9.48;;;14.40;99.90;;;;;;4915234;29;20499;-73
2021/05/13 15:58:18;;;;;;;8.87;8.27;;;14.30;99.90;;;;;;4915379;29;20578;-72
2021/05/13 16:00:47;;;;;;;8.60;7.90;;;14.30;99.90;;;;;;4912533;29;20601;-72
2021/05/13 16:03:13;;;;;;;8.53;7.93;;;14.30;99.90;;;;;;4907968;29;20561;-72
2021/05/13 16:05:39;;;;;;;9.60;8.90;;;14.30;99.90;;;;;;4913422;29;20545;-74
2021/05/13 16:08:06;;;;;;;10.50;9.73;;;14.30;99.90;;;;;;4914789;29;20536;-72
2021/05/13 16:10:35;;;;;;;10.60;9.80;;;14.30;99.90;;;;;;4902744;29;20487;-73
2021/05/13 16:13:09;;;;;;;10.77;9.97;;;14.40;99.90;;;;;;4901928;29;20470;-72
2021/05/13 16:15:36;;;;;;;11.30;10.50;;;14.40;99.90;;;;;;4915127;29;20462;-73
2021/05/13 16:18:03;;;;;;;11.07;9.97;;;14.30;99.90;;;;;;4915121;29;20932;-73
2021/05/13 16:20:29;;;;;;;11.27;10.37;;;14.30;99.90;;;;;;4914454;29;20494;-73
2021/05/13 16:22:56;;;;;;;11.85;10.75;;;14.10;99.90;;;;;;4915632;29;20514;-74
2021/05/13 16:25:22;;;;;;;11.50;10.70;;;14.00;99.90;;;;;;4912295;29;20230;-73
2021/05/13 16:27:49;;;;;;;12.27;11.10;;;14.00;99.90;;;;;;4914956;29;20217;-72
2021/05/13 16:30:16;;;;;;;11.43;10.50;;;13.90;99.90;;;;;;4919105;29;20564;-73
2021/05/13 16:32:42;;;;;;;10.87;10.07;;;13.90;99.90;;;;;;4917726;29;20222;-73
2021/05/13 16:35:11;;;;;;;10.95;9.93;;;13.90;99.90;;;;;;4918299;29;20463;-73
2021/05/13 16:37:37;;;;;;;10.43;9.63;;;13.80;99.90;;;;;;4918504;29;20230;-72
2021/05/13 16:40:04;;;;;;;11.68;10.68;;;13.70;99.90;;;;;;4919666;29;20202;-73